Time;durP1;ratioP1;P1;durP2;ratioP2;P2;SDS_P1;SDS_P2;PMS_P1;PMS_P2;Temp;Humidity;BMP_temperature;BMP_pressure;BME280_temperature;BME280_humidity;BME280_pressure;Samples;Min_cycle;Max_cycle;Signal;HPM_P1;HPM_P2
2023/06/17 00:00:55;;;;;;;26.40;14.73;;;;;;;15.59;90.95;100810.47;4955711;29;20098;-46
2023/06/17 00:03:22;;;;;;;21.92;13.60;;;;;;;15.62;91.14;100818.09;4955059;29;20585;-47
2023/06/17 00:05:49;;;;;;;22.05;14.13;;;;;;;15.63;91.07;100819.69;4938663;29;20047;-46
2023/06/17 00:08:16;;;;;;;20.20;14.82;;;;;;;15.66;91.28;100821.72;4955852;28;20482;-47
2023/06/17 00:10:43;;;;;;;21.80;15.30;;;;;;;15.66;91.54;100813.34;4955659;29;20062;-45
2023/06/17 00:13:10;;;;;;;22.67;15.75;;;;;;;15.67;91.70;100812.97;4956053;29;20031;-45
2023/06/17 00:15:37;;;;;;;23.40;16.08;;;;;;;15.69;92.01;100809.81;4955405;29;20490;-46
2023/06/17 00:18:05;;;;;;;19.83;14.77;;;;;;;15.71;92.23;100807.44;4955754;29;20043;-46
2023/06/17 00:20:36;;;;;;;20.50;16.05;;;;;;;15.73;92.21;100813.44;4937217;29;20087;-46
2023/06/17 00:23:03;;;;;;;20.52;15.18;;;;;;;15.77;92.23;100823.50;4955498;29;20482;-45
2023/06/17 00:25:30;;;;;;;23.90;15.48;;;;;;;15.81;92.20;100818.75;4955796;29;20055;-46
2023/06/17 00:27:58;;;;;;;20.35;16.17;;;;;;;15.81;92.32;100812.34;4951843;29;20040;-46
2023/06/17 00:30:25;;;;;;;20.65;15.25;;;;;;;15.80;92.38;100814.38;4951380;29;20481;-45
2023/06/17 00:32:52;;;;;;;22.48;15.35;;;;;;;15.83;92.54;100815.59;4955522;29;20043;-46
2023/06/17 00:35:20;;;;;;;20.33;15.48;;;;;;;15.85;92.57;100813.22;4955454;29;20055;-45
2023/06/17 00:37:47;;;;;;;22.88;15.77;;;;;;;15.86;92.67;100808.44;4954547;29;20055;-46
2023/06/17 00:40:14;;;;;;;21.30;15.25;;;;;;;15.83;92.89;100807.22;4955277;29;20468;-45
2023/06/17 00:42:41;;;;;;;22.30;16.05;;;;;;;15.82;92.92;100791.63;4954879;29;20623;-45
2023/06/17 00:45:08;;;;;;;21.30;16.27;;;;;;;15.82;93.28;100794.44;4955278;29;20058;-46
2023/06/17 00:47:35;;;;;;;22.98;15.82;;;;;;;15.82;93.40;100791.63;4955422;29;20055;-46
2023/06/17 00:50:02;;;;;;;19.40;14.93;;;;;;;15.83;93.50;100788.44;4954911;29;20081;-46
2023/06/17 00:52:29;;;;;;;22.90;13.50;;;;;;;15.82;93.48;100786.06;4955117;29;20556;-45
2023/06/17 00:55:10;;;;;;;17.98;14.45;;;;;;;15.83;93.76;100787.66;4954792;29;20044;-46
2023/06/17 00:57:38;;;;;;;23.95;15.57;;;;;;;15.83;93.61;100785.66;4955025;29;20086;-47
2023/06/17 01:00:10;;;;;;;22.25;15.10;;;;;;;15.81;93.89;100781.63;4955557;29;20569;-47
2023/06/17 01:02:44;;;;;;;20.42;16.35;;;;;;;15.79;93.83;100793.19;4954407;29;20059;-45
2023/06/17 01:05:16;;;;;;;21.15;16.38;;;;;;;15.82;94.12;100783.25;4954867;29;20051;-47
2023/06/17 01:08:09;;;;;;;24.77;16.38;;;;;;;15.80;94.10;100782.84;4954820;29;20524;-47
2023/06/17 01:10:56;;;;;;;21.60;16.55;;;;;;;15.75;94.29;100780.38;4952884;29;20047;-45
2023/06/17 01:13:27;;;;;;;24.90;15.98;;;;;;;15.73;94.31;100789.13;4954701;29;20055;-45
2023/06/17 01:15:54;;;;;;;26.75;17.15;;;;;;;15.70;94.46;100784.28;4954546;29;20482;-45
2023/06/17 01:18:22;;;;;;;24.75;17.38;;;;;;;15.65;94.65;100786.59;4954862;29;20081;-45
2023/06/17 01:20:53;;;;;;;30.67;17.02;;;;;;;15.60;94.82;100789.72;4954448;29;20043;-45
2023/06/17 01:23:23;;;;;;;;;;;;;;;15.59;95.04;100782.56;4954962;29;20050;-45
2023/06/17 01:25:51;;;;;;;23.27;17.98;;;;;;;15.59;94.57;100783.38;4954385;29;19957;-45
2023/06/17 01:28:19;;;;;;;24.80;17.30;;;;;;;15.61;94.36;100786.59;4958381;28;20042;-46
2023/06/17 01:30:47;;;;;;;25.08;17.85;;;;;;;15.60;94.57;100773.81;4955012;28;20043;-45
2023/06/17 01:33:15;;;;;;;26.95;17.65;;;;;;;15.63;94.92;100766.66;4954338;29;20405;-45
2023/06/17 01:35:50;;;;;;;23.13;17.27;;;;;;;15.65;94.92;100770.66;4954237;29;20051;-45
2023/06/17 01:38:41;;;;;;;27.13;18.92;;;;;;;15.65;95.02;100776.25;4954001;29;20498;-45
2023/06/17 01:41:11;;;;;;;24.38;17.25;;;;;;;15.66;94.82;100765.91;4954169;29;20055;-46
2023/06/17 01:43:40;;;;;;;27.67;19.70;;;;;;;15.67;95.10;100761.94;4953117;29;20035;-46
2023/06/17 01:46:09;;;;;;;30.73;19.60;;;;;;;15.64;95.22;100752.34;4954501;29;20126;-46
2023/06/17 01:48:36;;;;;;;29.58;18.73;;;;;;;15.65;95.30;100764.28;4953819;29;20141;-45
2023/06/17 01:51:04;;;;;;;28.92;19.40;;;;;;;15.66;95.53;100746.38;4936331;29;20051;-45
2023/06/17 01:53:31;;;;;;;26.75;18.40;;;;;;;15.65;95.52;100753.94;4953913;29;20047;-45
2023/06/17 01:55:58;;;;;;;27.67;17.63;;;;;;;15.65;95.63;100747.53;4954181;29;20051;-45
2023/06/17 01:58:25;;;;;;;30.25;20.27;;;;;;;15.66;95.62;100743.56;4953923;28;20046;-46
2023/06/17 02:00:51;;;;;;;26.02;17.50;;;;;;;15.65;95.68;100747.53;4952915;29;20107;-49
2023/06/17 02:03:18;;;;;;;35.75;19.20;;;;;;;15.66;95.95;100749.97;4953548;29;20772;-45
2023/06/17 02:05:45;;;;;;;22.92;15.70;;;;;;;15.68;95.78;100747.59;4953678;29;20051;-46
2023/06/17 02:08:14;;;;;;;24.63;16.50;;;;;;;15.71;95.92;100752.41;4937039;29;20055;-46
2023/06/17 02:10:41;;;;;;;25.35;16.85;;;;;;;15.72;95.87;100745.66;4953525;29;20514;-47
2023/06/17 02:13:10;;;;;;;24.45;16.27;;;;;;;15.71;95.93;100743.22;4953545;29;20042;-46
2023/06/17 02:15:38;;;;;;;26.05;16.58;;;;;;;15.70;96.10;100738.84;4936192;29;20051;-46
2023/06/17 02:18:05;;;;;;;23.90;17.40;;;;;;;15.70;96.00;100738.84;4953126;29;20051;-46
2023/06/17 02:20:32;;;;;;;26.55;17.60;;;;;;;15.69;96.18;100742.81;4953034;28;20059;-46
2023/06/17 02:22:59;;;;;;;30.20;19.13;;;;;;;15.67;96.23;100734.03;4953295;29;20114;-46
2023/06/17 02:25:26;;;;;;;29.75;18.25;;;;;;;15.63;96.40;100733.97;4953306;29;20043;-46
2023/06/17 02:27:53;;;;;;;30.83;17.73;;;;;;;15.64;96.51;100732.00;4951464;29;20085;-46
2023/06/17 02:30:20;;;;;;;25.52;17.75;;;;;;;15.60;96.40;100733.91;4953400;29;20493;-46
2023/06/17 02:32:47;;;;;;;28.13;19.02;;;;;;;15.56;96.66;100721.91;4953162;29;20040;-46
2023/06/17 02:35:15;;;;;;;24.02;15.98;;;;;;;15.53;96.72;100717.91;4950410;29;20039;-47
2023/06/17 02:37:43;;;;;;;28.35;15.73;;;;;;;15.51;96.78;100725.84;4953167;29;20095;-46
2023/06/17 02:40:10;;;;;;;23.52;15.48;;;;;;;15.51;96.92;100725.84;4953286;29;20047;-45
2023/06/17 02:42:37;;;;;;;24.92;14.77;;;;;;;15.51;96.93;100719.47;4953039;28;20058;-46
2023/06/17 02:45:05;;;;;;;18.42;14.40;;;;;;;15.52;97.09;100719.06;4953202;29;20146;-46
2023/06/17 02:47:32;;;;;;;22.60;14.80;;;;;;;15.53;97.07;100714.31;4953126;29;20107;-46
2023/06/17 02:49:59;;;;;;;22.85;13.13;;;;;;;15.53;97.24;100711.50;4953095;29;20055;-45
2023/06/17 02:52:26;;;;;;;17.90;12.07;;;;;;;15.50;97.41;100707.50;4952320;29;20114;-45
2023/06/17 02:54:52;;;;;;;22.70;13.15;;;;;;;15.47;97.40;100707.44;4952820;28;20229;-45
2023/06/17 02:57:19;;;;;;;19.30;12.60;;;;;;;15.43;97.66;100698.22;4953036;29;20054;-45
2023/06/17 02:59:47;;;;;;;24.50;13.48;;;;;;;15.39;97.76;100684.19;4952979;29;20041;-46
2023/06/17 03:02:15;;;;;;;19.98;11.85;;;;;;;15.39;97.84;100673.03;4982094;23;20475;-48
2023/06/17 03:04:43;;;;;;;19.80;12.48;;;;;;;15.39;97.94;100675.84;4952980;29;20531;-45
2023/06/17 03:07:15;;;;;;;14.77;11.00;;;;;;;15.40;97.89;100668.28;4935914;29;20051;-45
2023/06/17 03:09:42;;;;;;;21.50;12.07;;;;;;;15.42;98.16;100668.69;4951913;29;20057;-45
2023/06/17 03:19:59;;;;;;;21.70;12.60;;;;;;;15.31;97.98;100676.91;4947623;28;20031;-45
2023/06/17 03:22:26;;;;;;;30.45;13.57;;;;;;;15.31;97.96;100676.91;4952155;29;20441;-45
2023/06/17 03:24:53;;;;;;;21.42;11.88;;;;;;;15.27;98.16;100676.88;4953305;29;20095;-45
2023/06/17 03:27:20;;;;;;;21.70;12.55;;;;;;;15.25;98.26;100670.88;4944733;28;20090;-45
2023/06/17 03:29:49;;;;;;;20.30;12.57;;;;;;;15.25;98.70;100668.06;4952935;29;20405;-45
2023/06/17 03:32:15;;;;;;;19.02;11.48;;;;;;;15.27;98.78;100669.69;4953368;28;20075;-45
2023/06/17 03:34:42;;;;;;;19.40;10.70;;;;;;;15.25;98.66;100667.28;4956397;29;20106;-45
2023/06/17 03:37:10;;;;;;;17.83;11.18;;;;;;;15.27;98.78;100664.13;4956461;29;20043;-45
2023/06/17 03:39:37;;;;;;;17.00;10.73;;;;;;;15.31;99.15;100664.94;4956652;29;20044;-45
2023/06/17 03:42:04;;;;;;;22.73;13.63;;;;;;;15.37;99.25;100652.28;4956332;29;20712;-45
2023/06/17 03:44:31;;;;;;;18.02;12.07;;;;;;;15.38;99.17;100662.28;4955308;29;20047;-45
2023/06/17 03:46:59;;;;;;;20.83;11.88;;;;;;;15.37;99.21;100658.69;4955969;29;20094;-46
2023/06/17 03:49:30;;;;;;;15.73;10.88;;;;;;;15.36;99.25;100661.81;4956287;29;20055;-48
2023/06/17 03:51:56;;;;;;;20.20;12.10;;;;;;;15.34;99.33;100659.44;4956260;29;20051;-46
2023/06/17 03:54:23;;;;;;;16.30;11.38;;;;;;;15.33;99.48;100646.66;4955997;29;20569;-46
2023/06/17 03:56:50;;;;;;;18.70;12.40;;;;;;;15.31;99.62;100657.41;4943359;29;20043;-46
2023/06/17 03:59:17;;;;;;;16.13;12.20;;;;;;;15.29;99.49;100664.53;4955917;29;20047;-46
2023/06/17 04:01:44;;;;;;;17.48;12.30;;;;;;;15.27;99.58;100664.13;4954929;29;20063;-45
2023/06/17 04:04:11;;;;;;;19.42;11.60;;;;;;;15.24;99.62;100660.91;4955869;29;20079;-46
2023/06/17 04:06:37;;;;;;;18.70;13.13;;;;;;;15.24;99.83;100654.53;4956365;29;20055;-46
2023/06/17 04:09:05;;;;;;;18.27;12.88;;;;;;;15.24;99.76;100666.50;4955778;29;20055;-45
2023/06/17 04:11:32;;;;;;;19.73;10.82;;;;;;;15.25;99.88;100661.69;4955723;29;20051;-46
2023/06/17 04:13:59;;;;;;;16.67;12.93;;;;;;;15.23;99.99;100656.50;4938538;29;20112;-46
2023/06/17 04:16:30;;;;;;;16.77;12.15;;;;;;;15.21;100.00;100653.31;4939010;29;20043;-45
2023/06/17 04:18:57;;;;;;;15.50;11.40;;;;;;;15.19;100.00;100652.06;4955250;29;20055;-45
2023/06/17 04:21:24;;;;;;;15.00;13.07;;;;;;;15.19;100.00;100646.50;4955960;29;20054;-45
2023/06/17 04:23:51;;;;;;;16.20;13.80;;;;;;;15.19;100.00;100647.31;4955543;29;20047;-45
2023/06/17 04:26:18;;;;;;;21.00;12.77;;;;;;;15.19;100.00;100647.31;4949069;29;20096;-45
2023/06/17 04:28:46;;;;;;;17.58;13.52;;;;;;;15.21;100.00;100656.09;4951999;29;20043;-47
2023/06/17 04:31:15;;;;;;;19.90;14.25;;;;;;;15.22;100.00;100652.09;4955372;29;20042;-47
2023/06/17 04:33:42;;;;;;;19.38;13.23;;;;;;;15.21;100.00;100650.50;4954565;29;20124;-45
2023/06/17 04:36:09;;;;;;;17.85;12.93;;;;;;;15.21;100.00;100655.28;4955796;29;20047;-45
2023/06/17 04:38:37;;;;;;;17.48;12.77;;;;;;;15.15;100.00;100652.00;4955159;29;20118;-45
2023/06/17 04:41:08;;;;;;;16.67;12.50;;;;;;;15.13;100.00;100648.81;4955146;29;20524;-45
2023/06/17 04:43:36;;;;;;;17.03;13.20;;;;;;;15.12;100.00;100641.63;4955044;28;20374;-45
2023/06/17 04:46:04;;;;;;;20.52;13.02;;;;;;;15.14;100.00;100644.03;4955246;29;20555;-45
2023/06/17 04:48:31;;;;;;;22.48;12.95;;;;;;;15.12;100.00;100644.41;4955045;29;20059;-47
2023/06/17 04:50:58;;;;;;;17.58;11.88;;;;;;;15.09;100.00;100647.16;4954544;29;20051;-46
2023/06/17 04:53:25;;;;;;;16.58;12.00;;;;;;;15.08;100.00;100643.56;4955024;29;20584;-45
2023/06/17 04:55:52;;;;;;;19.55;11.63;;;;;;;15.06;100.00;100637.53;4955170;29;20564;-45
2023/06/17 04:58:19;;;;;;;20.98;14.00;;;;;;;15.06;100.00;100637.53;4954920;29;20079;-46
2023/06/17 05:00:45;;;;;;;15.90;12.57;;;;;;;15.09;100.00;100633.22;4954685;29;20082;-46
2023/06/17 05:03:12;;;;;;;20.55;13.60;;;;;;;15.09;100.00;100625.63;4951405;29;20043;-46
2023/06/17 05:05:39;;;;;;;22.77;13.27;;;;;;;15.06;100.00;100620.81;4948067;29;20047;-45
2023/06/17 05:08:06;;;;;;;23.80;14.57;;;;;;;15.04;100.00;100617.59;4953945;29;20133;-46
2023/06/17 05:10:33;;;;;;;21.48;13.95;;;;;;;15.04;100.00;100631.53;4954855;29;20485;-45
2023/06/17 05:13:00;;;;;;;22.45;12.07;;;;;;;15.04;100.00;100622.38;4954673;29;20039;-45
2023/06/17 05:15:27;;;;;;;23.88;14.35;;;;;;;15.03;100.00;100621.59;4954912;29;20055;-50
2023/06/17 05:17:55;;;;;;;16.48;12.80;;;;;;;15.05;100.00;100618.41;4954993;29;20500;-47
2023/06/17 05:20:22;;;;;;;30.05;16.13;;;;;;;15.03;100.00;100621.59;4954579;29;20146;-46
2023/06/17 05:22:48;;;;;;;31.42;15.82;;;;;;;15.02;100.00;100619.97;4954548;29;20047;-46
2023/06/17 05:25:15;;;;;;;19.23;12.60;;;;;;;15.03;100.00;100624.38;4949168;29;20478;-46
2023/06/17 05:27:42;;;;;;;19.30;13.65;;;;;;;15.02;100.00;100624.75;4954702;29;20039;-45
2023/06/17 05:30:09;;;;;;;22.20;14.80;;;;;;;15.02;100.00;100628.34;4954120;29;20045;-46
2023/06/17 05:32:36;;;;;;;25.60;14.13;;;;;;;14.99;100.00;100626.31;4954437;29;20446;-46
2023/06/17 05:35:04;;;;;;;19.70;13.45;;;;;;;15.01;100.00;100631.50;4954302;29;20485;-46
2023/06/17 05:37:31;;;;;;;20.33;14.07;;;;;;;15.04;100.00;100631.53;4954224;29;20482;-45
2023/06/17 05:39:58;;;;;;;23.02;12.73;;;;;;;15.06;100.00;100629.19;4954378;28;20083;-46
2023/06/17 05:42:25;;;;;;;23.98;14.57;;;;;;;15.05;100.00;100626.78;4947416;29;20159;-45
2023/06/17 05:44:52;;;;;;;19.95;14.27;;;;;;;15.08;100.00;100623.22;4950108;29;20517;-46
2023/06/17 05:47:18;;;;;;;18.25;14.13;;;;;;;15.09;100.00;100622.84;4954112;29;20133;-46
2023/06/17 05:49:45;;;;;;;22.45;14.88;;;;;;;15.17;100.00;100627.34;4954160;29;20047;-45
2023/06/17 05:52:12;;;;;;;22.08;13.68;;;;;;;15.27;100.00;100613.91;4954196;29;20051;-46
2023/06/17 05:54:39;;;;;;;21.70;15.45;;;;;;;15.35;100.00;100610.03;4953458;28;20505;-46
2023/06/17 05:57:05;;;;;;;18.85;13.30;;;;;;;15.47;100.00;100616.19;4953697;29;20050;-46
2023/06/17 05:59:32;;;;;;;18.48;12.98;;;;;;;15.58;100.00;100613.50;4952868;29;20086;-46
2023/06/17 06:01:59;;;;;;;14.10;12.10;;;;;;;15.66;100.00;100613.22;4953884;29;20106;-45
2023/06/17 06:04:29;;;;;;;17.45;12.63;;;;;;;15.73;100.00;100606.88;4953723;29;20074;-46
2023/06/17 06:06:56;;;;;;;18.38;12.93;;;;;;;15.77;100.00;100611.34;4953859;29;20106;-46
2023/06/17 06:09:23;;;;;;;15.98;11.57;;;;;;;15.82;100.00;100612.97;4953528;29;20489;-46
2023/06/17 06:11:50;;;;;;;14.65;11.38;;;;;;;15.84;100.00;100616.97;4953800;29;20078;-46
2023/06/17 06:14:17;;;;;;;15.02;11.45;;;;;;;15.84;100.00;100613.38;4953502;29;20035;-46
2023/06/17 06:16:45;;;;;;;16.60;12.77;;;;;;;15.87;100.00;100607.03;4953091;29;20086;-46
2023/06/17 06:19:12;;;;;;;18.73;14.20;;;;;;;15.90;100.00;100603.47;4953465;29;20043;-45
2023/06/17 06:21:39;;;;;;;15.07;10.77;;;;;;;15.92;100.00;100603.06;4936187;29;20501;-46
2023/06/17 06:24:06;;;;;;;13.88;11.48;;;;;;;15.92;100.00;100601.09;4953317;29;20421;-45
2023/06/17 06:26:33;;;;;;;14.27;11.50;;;;;;;15.94;100.00;100597.94;4948172;28;20135;-46
2023/06/17 06:28:59;;;;;;;16.27;11.32;;;;;;;15.99;100.00;100612.31;4953693;29;20044;-46
2023/06/17 06:31:27;;;;;;;13.93;10.73;;;;;;;16.07;100.00;100614.00;4953265;29;20059;-46
2023/06/17 06:33:54;;;;;;;16.02;11.30;;;;;;;16.20;99.98;100617.31;4952348;29;20119;-47
2023/06/17 06:36:21;;;;;;;14.82;9.93;;;;;;;16.32;99.79;100615.03;4953091;29;20409;-46
2023/06/17 06:38:48;;;;;;;11.65;10.25;;;;;;;16.41;99.52;100612.69;4953271;28;20058;-46
2023/06/17 06:41:15;;;;;;;14.40;10.05;;;;;;;16.50;99.62;100614.34;4952186;29;20043;-46
2023/06/17 06:43:43;;;;;;;12.70;10.73;;;;;;;16.56;99.41;100615.63;4950781;29;20078;-46
2023/06/17 06:46:10;;;;;;;12.20;9.77;;;;;;;16.68;99.52;100620.91;4952488;29;20409;-46
2023/06/17 06:48:39;;;;;;;12.52;9.25;;;;;;;16.80;99.16;100626.16;4952742;29;20047;-47
2023/06/17 06:51:06;;;;;;;13.05;10.45;;;;;;;16.90;99.22;100625.41;4952335;29;20051;-46
2023/06/17 06:53:33;;;;;;;13.70;9.82;;;;;;;17.02;98.99;100625.09;4952505;29;20146;-46
2023/06/17 06:56:00;;;;;;;15.18;10.70;;;;;;;17.12;98.87;100632.75;4953121;29;20043;-46
2023/06/17 06:58:26;;;;;;;15.95;10.18;;;;;;;17.12;98.50;100624.34;4935806;29;20079;-46
2023/06/17 07:00:53;;;;;;;12.75;11.45;;;;;;;17.19;98.82;100629.16;4952595;29;20568;-46
2023/06/17 07:03:20;;;;;;;19.55;11.73;;;;;;;17.31;98.97;100632.44;4952187;29;20102;-46
2023/06/17 07:05:48;;;;;;;13.82;9.65;;;;;;;17.44;98.90;100624.50;4953148;29;20051;-47
2023/06/17 07:08:15;;;;;;;16.10;11.40;;;;;;;17.51;98.84;100625.31;4955923;28;20039;-46
2023/06/17 07:10:42;;;;;;;11.82;9.82;;;;;;;17.64;99.10;100634.16;4956886;29;20105;-47
2023/06/17 07:13:09;;;;;;;15.05;11.80;;;;;;;17.72;98.33;100637.78;4956242;29;20047;-47
2023/06/17 07:15:35;;;;;;;11.00;9.60;;;;;;;17.72;98.08;100633.00;4957096;29;20051;-46
2023/06/17 07:18:03;;;;;;;12.20;10.65;;;;;;;17.78;97.77;100637.03;4956823;29;20039;-48
2023/06/17 07:20:30;;;;;;;12.80;9.88;;;;;;;17.82;97.53;100635.00;4956902;29;20047;-46
2023/06/17 07:22:57;;;;;;;14.52;9.35;;;;;;;18.01;98.16;100636.66;4955350;29;20047;-46
2023/06/17 07:25:25;;;;;;;13.00;9.90;;;;;;;18.17;98.00;100639.88;4955257;28;20055;-47
2023/06/17 07:27:56;;;;;;;14.43;9.63;;;;;;;18.29;97.88;100636.69;4954948;29;20051;-44
2023/06/17 07:30:23;;;;;;;15.30;9.40;;;;;;;18.41;98.35;100633.47;4956552;29;20477;-43
2023/06/17 07:32:50;;;;;;;13.48;9.75;;;;;;;18.55;98.85;100636.31;4954638;29;20073;-43
2023/06/17 07:35:17;;;;;;;11.63;8.63;;;;;;;18.66;98.74;100639.91;4956788;29;20408;-44
2023/06/17 07:37:44;;;;;;;12.05;9.05;;;;;;;18.78;97.60;100635.88;4955800;29;20058;-46
2023/06/17 07:40:12;;;;;;;12.30;8.98;;;;;;;18.74;96.34;100640.69;4955777;29;20498;-45
2023/06/17 07:42:42;;;;;;;11.15;8.60;;;;;;;18.56;95.04;100643.50;4949029;29;20421;-45
2023/06/17 07:45:10;;;;;;;11.75;8.30;;;;;;;18.45;93.65;100639.91;4956164;29;20077;-43
2023/06/17 07:47:37;;;;;;;13.82;8.52;;;;;;;18.38;92.53;100639.88;4956468;29;20062;-43
2023/06/17 07:50:05;;;;;;;10.05;7.55;;;;;;;18.36;92.04;100649.88;4956364;29;20101;-43
2023/06/17 07:52:34;;;;;;;10.85;8.38;;;;;;;18.18;90.76;100647.09;4956269;29;20047;-43
2023/06/17 07:55:02;;;;;;;10.52;7.93;;;;;;;18.13;90.34;100644.69;4955904;28;20497;-46
2023/06/17 07:57:33;;;;;;;10.20;8.25;;;;;;;18.04;89.56;100641.47;4955873;29;20058;-47
2023/06/17 08:00:00;;;;;;;10.70;7.72;;;;;;;17.97;89.21;100653.47;4955956;29;20043;-46
2023/06/17 08:02:27;;;;;;;9.48;8.27;;;;;;;17.86;88.63;100646.22;4955649;29;20059;-46
2023/06/17 08:04:54;;;;;;;12.55;9.20;;;;;;;17.74;88.60;100652.22;4955885;29;20043;-46
2023/06/17 08:07:21;;;;;;;10.15;8.05;;;;;;;17.60;88.48;100659.38;4954752;29;20061;-46
2023/06/17 08:09:48;;;;;;;13.80;8.88;;;;;;;17.51;88.40;100652.50;4943443;29;20058;-47
2023/06/17 08:12:15;;;;;;;11.02;8.63;;;;;;;17.46;88.31;100656.47;4956067;29;20090;-46
2023/06/17 08:14:41;;;;;;;10.80;8.65;;;;;;;17.41;88.13;100656.88;4954675;29;20097;-46
2023/06/17 08:17:08;;;;;;;11.65;9.63;;;;;;;17.29;88.02;100651.59;4955818;29;20086;-46
2023/06/17 08:19:35;;;;;;;11.23;8.77;;;;;;;17.25;88.16;100655.59;4955246;28;20055;-46
2023/06/17 08:22:02;;;;;;;12.45;9.48;;;;;;;17.26;88.15;100651.59;4955710;28;20055;-46
2023/06/17 08:24:29;;;;;;;16.65;9.57;;;;;;;17.28;88.24;100650.00;4955273;29;20055;-46
2023/06/17 08:26:55;;;;;;;11.25;8.90;;;;;;;17.32;87.87;100655.59;4955649;29;20047;-46
2023/06/17 08:29:22;;;;;;;15.25;9.70;;;;;;;17.34;87.88;100656.81;4938418;29;20043;-46
2023/06/17 08:31:51;;;;;;;14.95;9.95;;;;;;;17.36;87.73;100662.84;4954875;29;20059;-46
2023/06/17 08:34:18;;;;;;;9.75;8.75;;;;;;;17.30;87.62;100658.00;4955409;29;20051;-47
2023/06/17 08:36:57;;;;;;;13.02;9.13;;;;;;;17.25;87.69;100663.97;4955402;29;20054;-46
2023/06/17 08:39:24;;;;;;;11.43;10.13;;;;;;;17.17;87.76;100671.53;4955468;29;20058;-46
2023/06/17 08:41:52;;;;;;;14.30;9.82;;;;;;;17.11;88.15;100666.69;4955338;29;20517;-46
2023/06/17 08:44:22;;;;;;;16.15;9.88;;;;;;;17.01;88.03;100673.84;4955193;29;20051;-46
2023/06/17 08:46:51;;;;;;;14.50;10.27;;;;;;;16.94;88.10;100668.97;4955264;29;20043;-46
2023/06/17 08:49:18;;;;;;;14.60;10.88;;;;;;;16.92;88.44;100670.56;4954334;29;20878;-48
2023/06/17 08:51:48;;;;;;;14.05;10.60;;;;;;;16.84;88.79;100668.91;4938071;29;20039;-46
2023/06/17 08:54:16;;;;;;;14.48;10.38;;;;;;;16.77;88.70;100663.28;4955041;29;20098;-46
2023/06/17 08:56:44;;;;;;;13.80;10.82;;;;;;;16.70;89.02;100657.66;4955043;29;20131;-46
2023/06/17 08:59:11;;;;;;;12.68;10.82;;;;;;;16.65;89.09;100667.22;4955030;29;20553;-47
2023/06/17 09:01:38;;;;;;;20.58;12.80;;;;;;;16.62;89.69;100656.00;4954906;28;20054;-46
2023/06/17 09:04:06;;;;;;;12.77;10.95;;;;;;;16.64;89.90;100648.03;4955010;29;20398;-50
2023/06/17 09:06:32;;;;;;;13.55;11.15;;;;;;;16.66;90.32;100656.81;4942731;29;20103;-45
2023/06/17 09:08:59;;;;;;;14.48;11.77;;;;;;;16.63;90.45;100641.63;4954620;29;20047;-46
2023/06/17 09:11:28;;;;;;;17.80;12.95;;;;;;;16.63;90.40;100629.63;4955251;28;20039;-45
2023/06/17 09:13:57;;;;;;;14.25;11.93;;;;;;;16.61;91.08;100626.44;4954472;28;20557;-46
2023/06/17 09:16:28;;;;;;;15.55;11.40;;;;;;;16.61;91.06;100634.81;4954750;29;20057;-45
2023/06/17 09:18:59;;;;;;;16.35;11.98;;;;;;;16.55;91.05;100633.59;4954680;29;20453;-45
2023/06/17 09:21:27;;;;;;;15.98;12.25;;;;;;;16.52;91.33;100625.94;4954873;29;20043;-46
2023/06/17 09:23:56;;;;;;;16.83;12.15;;;;;;;16.47;91.67;100626.31;4946925;29;20066;-45
2023/06/17 09:26:29;;;;;;;15.45;11.88;;;;;;;16.42;91.75;100622.69;4954529;29;20039;-45
2023/06/17 09:29:05;;;;;;;14.38;12.43;;;;;;;16.45;92.22;100624.69;4954368;29;20114;-45
2023/06/17 09:31:45;;;;;;;17.55;12.85;;;;;;;16.43;92.22;100615.09;4953664;29;20075;-45
2023/06/17 09:34:12;;;;;;;18.45;13.30;;;;;;;16.38;92.32;100609.88;4954653;28;20035;-46
2023/06/17 09:36:39;;;;;;;19.38;13.57;;;;;;;16.33;92.56;100613.03;4953212;28;20130;-46
2023/06/17 09:39:08;;;;;;;19.48;14.50;;;;;;;16.30;92.85;100611.81;4954178;29;20497;-45
2023/06/17 09:41:39;;;;;;;19.25;13.80;;;;;;;16.26;93.06;100610.16;4953674;29;20050;-47
2023/06/17 09:44:06;;;;;;;18.33;14.27;;;;;;;16.24;93.16;100606.97;4954461;29;20051;-46
2023/06/17 09:46:40;;;;;;;17.38;11.88;;;;;;;16.24;93.42;100599.38;4954174;29;20039;-46
2023/06/17 09:49:09;;;;;;;24.75;13.13;;;;;;;16.23;93.67;100600.56;4953991;29;20043;-46
2023/06/17 09:51:37;;;;;;;19.35;12.38;;;;;;;16.21;93.78;100597.38;4935137;29;20070;-47
2023/06/17 09:54:09;;;;;;;13.77;11.20;;;;;;;16.21;93.77;100608.53;4944926;29;20046;-52
2023/06/17 09:56:37;;;;;;;19.03;11.93;;;;;;;16.17;93.93;100595.75;4953601;29;20039;-46
2023/06/17 09:59:07;;;;;;;16.92;11.77;;;;;;;16.18;94.06;100595.34;4946100;29;20054;-45
2023/06/17 10:01:38;;;;;;;18.20;13.50;;;;;;;16.19;94.20;100587.75;4936644;29;20055;-45
2023/06/17 10:04:09;;;;;;;17.10;12.32;;;;;;;16.15;94.34;100581.38;4952861;29;20098;-48
2023/06/17 10:06:39;;;;;;;15.48;12.50;;;;;;;16.11;94.28;100581.31;4942219;29;20043;-46
2023/06/17 10:09:08;;;;;;;19.92;13.23;;;;;;;16.10;94.57;100574.13;4936390;29;20047;-45
2023/06/17 10:11:35;;;;;;;15.75;12.52;;;;;;;16.10;94.82;100557.38;4953681;29;20055;-46
2023/06/17 10:14:07;;;;;;;19.13;13.30;;;;;;;16.11;95.17;100561.78;4949698;29;20099;-47
2023/06/17 10:16:38;;;;;;;20.95;13.73;;;;;;;16.10;95.15;100557.38;4953789;29;20050;-47
2023/06/17 10:19:10;;;;;;;20.90;13.35;;;;;;;16.14;95.23;100558.22;4953957;29;20043;-46
2023/06/17 10:21:42;;;;;;;19.23;14.23;;;;;;;16.22;95.40;100564.66;4953665;29;20055;-46
2023/06/17 10:24:10;;;;;;;22.35;13.52;;;;;;;16.26;95.32;100574.66;4952676;29;20058;-45
2023/06/17 10:26:38;;;;;;;17.83;13.23;;;;;;;16.32;95.39;100569.50;4936392;29;20450;-47
2023/06/17 10:29:10;;;;;;;21.40;12.75;;;;;;;16.34;95.43;100556.75;4953693;29;20058;-46
2023/06/17 10:31:39;;;;;;;16.95;12.48;;;;;;;16.41;95.57;100547.63;4952597;28;20080;-46
2023/06/17 10:34:20;;;;;;;19.25;13.40;;;;;;;16.54;95.73;100559.31;4951018;29;20164;-45
2023/06/17 10:36:57;;;;;;;17.02;12.35;;;;;;;16.60;95.51;100558.53;4949636;29;20078;-45
2023/06/17 10:39:24;;;;;;;18.80;10.52;;;;;;;16.71;95.44;100548.22;4953362;29;20106;-45
2023/06/17 10:41:55;;;;;;;14.57;10.23;;;;;;;16.82;95.47;100548.28;4952936;28;20402;-45
2023/06/17 10:44:34;;;;;;;14.23;11.20;;;;;;;16.95;95.06;100541.16;4950247;29;20103;-45
2023/06/17 10:47:14;;;;;;;13.23;11.73;;;;;;;17.02;95.02;100546.78;4953238;28;20289;-46
2023/06/17 10:49:42;;;;;;;15.38;11.50;;;;;;;17.10;94.83;100548.41;4952273;29;20130;-45
2023/06/17 10:52:13;;;;;;;12.65;11.32;;;;;;;17.08;94.88;100556.38;4952488;29;20043;-46
2023/06/17 10:54:52;;;;;;;16.85;11.52;;;;;;;17.03;94.43;100553.97;4949525;29;20051;-45
2023/06/17 10:57:33;;;;;;;15.93;11.30;;;;;;;17.00;94.50;100554.75;4936282;29;20445;-46
2023/06/17 11:00:11;;;;;;;13.27;10.83;;;;;;;16.94;94.49;100556.34;4953264;29;20046;-46
2023/06/17 11:02:39;;;;;;;13.95;10.85;;;;;;;16.89;94.42;100556.72;4952263;29;20087;-46
2023/06/17 11:05:07;;;;;;;14.18;11.07;;;;;;;16.93;94.58;100557.53;4952205;29;20039;-46
2023/06/17 11:07:34;;;;;;;16.70;11.80;;;;;;;17.02;94.62;100553.16;4952794;29;20713;-46
2023/06/17 11:10:02;;;;;;;15.50;11.68;;;;;;;17.14;94.29;100542.81;4952974;29;20047;-47
2023/06/17 11:12:29;;;;;;;14.63;11.27;;;;;;;17.27;94.14;100556.06;4952140;29;20074;-46
2023/06/17 11:14:59;;;;;;;13.30;10.48;;;;;;;17.31;93.76;100558.88;4951304;29;20039;-46
2023/06/17 11:17:27;;;;;;;17.30;11.48;;;;;;;17.37;93.65;100562.88;4952846;29;20106;-46
2023/06/17 11:19:54;;;;;;;15.43;11.27;;;;;;;17.43;93.51;100564.09;4952988;29;20560;-49
2023/06/17 11:22:22;;;;;;;14.60;10.75;;;;;;;17.52;93.61;100551.34;4952179;28;20071;-46